sensor_id;sensor_type;location;lat;lon;timestamp;temperature;humidity
61398;DHT22;47267;48.130;-2.040;2023-04-01T00:00:55;20.30;51.80
61398;DHT22;47267;48.130;-2.040;2023-04-01T00:03:22;20.30;51.80
61398;DHT22;47267;48.130;-2.040;2023-04-01T00:05:48;20.20;51.80
61398;DHT22;47267;48.130;-2.040;2023-04-01T00:08:15;20.20;51.80
61398;DHT22;47267;48.130;-2.040;2023-04-01T00:10:41;20.20;51.80
61398;DHT22;47267;48.130;-2.040;2023-04-01T00:13:06;20.30;51.80
61398;DHT22;47267;48.130;-2.040;2023-04-01T00:15:32;20.30;51.80
61398;DHT22;47267;48.130;-2.040;2023-04-01T00:17:58;20.20;51.70
61398;DHT22;47267;48.130;-2.040;2023-04-01T00:20:24;20.20;51.70
61398;DHT22;47267;48.130;-2.040;2023-04-01T00:22:50;20.20;51.90
61398;DHT22;47267;48.130;-2.040;2023-04-01T00:25:16;20.30;51.80
61398;DHT22;47267;48.130;-2.040;2023-04-01T00:27:42;20.20;51.70
61398;DHT22;47267;48.130;-2.040;2023-04-01T00:30:08;20.20;51.70
61398;DHT22;47267;48.130;-2.040;2023-04-01T00:32:34;20.20;51.70
61398;DHT22;47267;48.130;-2.040;2023-04-01T00:35:00;20.30;51.80
61398;DHT22;47267;48.130;-2.040;2023-04-01T00:37:27;20.20;51.70
61398;DHT22;47267;48.130;-2.040;2023-04-01T00:39:54;20.20;51.70
61398;DHT22;47267;48.130;-2.040;2023-04-01T00:42:19;20.20;51.70
61398;DHT22;47267;48.130;-2.040;2023-04-01T00:44:50;20.20;51.70
61398;DHT22;47267;48.130;-2.040;2023-04-01T00:47:16;20.20;51.70
61398;DHT22;47267;48.130;-2.040;2023-04-01T00:49:46;20.20;51.70
61398;DHT22;47267;48.130;-2.040;2023-04-01T00:52:17;20.20;51.70
61398;DHT22;47267;48.130;-2.040;2023-04-01T00:54:47;20.20;51.70
61398;DHT22;47267;48.130;-2.040;2023-04-01T00:57:17;20.20;51.70
61398;DHT22;47267;48.130;-2.040;2023-04-01T00:59:46;20.20;51.70
61398;DHT22;47267;48.130;-2.040;2023-04-01T01:02:14;20.20;51.70
61398;DHT22;47267;48.130;-2.040;2023-04-01T01:04:40;20.20;51.70
61398;DHT22;47267;48.130;-2.040;2023-04-01T01:10:23;20.20;51.60
61398;DHT22;47267;48.130;-2.040;2023-04-01T01:13:02;20.20;51.60
61398;DHT22;47267;48.130;-2.040;2023-04-01T01:18:43;20.20;51.60
61398;DHT22;47267;48.130;-2.040;2023-04-01T01:21:32;20.20;51.60
61398;DHT22;47267;48.130;-2.040;2023-04-01T01:27:11;20.20;51.60
61398;DHT22;47267;48.130;-2.040;2023-04-01T01:32:42;20.20;51.60
61398;DHT22;47267;48.130;-2.040;2023-04-01T01:35:43;20.20;51.60
61398;DHT22;47267;48.130;-2.040;2023-04-01T01:38:15;20.20;51.60
61398;DHT22;47267;48.130;-2.040;2023-04-01T01:40:45;20.20;51.60
61398;DHT22;47267;48.130;-2.040;2023-04-01T01:43:15;20.20;51.60
61398;DHT22;47267;48.130;-2.040;2023-04-01T01:45:46;20.20;51.50
61398;DHT22;47267;48.130;-2.040;2023-04-01T01:48:14;20.20;51.60
61398;DHT22;47267;48.130;-2.040;2023-04-01T01:50:43;20.20;51.60
61398;DHT22;47267;48.130;-2.040;2023-04-01T01:53:12;20.20;51.60
61398;DHT22;47267;48.130;-2.040;2023-04-01T01:55:44;20.20;51.50
61398;DHT22;47267;48.130;-2.040;2023-04-01T01:58:44;20.20;51.60
61398;DHT22;47267;48.130;-2.040;2023-04-01T02:01:25;20.20;51.50
61398;DHT22;47267;48.130;-2.040;2023-04-01T02:03:52;20.20;51.60
61398;DHT22;47267;48.130;-2.040;2023-04-01T02:06:22;20.20;51.60
61398;DHT22;47267;48.130;-2.040;2023-04-01T02:08:59;20.20;51.50
61398;DHT22;47267;48.130;-2.040;2023-04-01T02:11:38;20.20;51.50
61398;DHT22;47267;48.130;-2.040;2023-04-01T02:14:10;20.10;51.50
61398;DHT22;47267;48.130;-2.040;2023-04-01T02:17:07;20.20;51.50
61398;DHT22;47267;48.130;-2.040;2023-04-01T02:19:39;20.10;51.60
61398;DHT22;47267;48.130;-2.040;2023-04-01T02:22:11;20.10;51.50
61398;DHT22;47267;48.130;-2.040;2023-04-01T02:24:40;20.20;51.50
61398;DHT22;47267;48.130;-2.040;2023-04-01T02:27:08;20.10;51.50
61398;DHT22;47267;48.130;-2.040;2023-04-01T02:29:37;20.10;52.00
61398;DHT22;47267;48.130;-2.040;2023-04-01T02:32:03;20.20;51.50
61398;DHT22;47267;48.130;-2.040;2023-04-01T02:34:30;20.10;51.40
61398;DHT22;47267;48.130;-2.040;2023-04-01T02:36:56;20.10;51.40
61398;DHT22;47267;48.130;-2.040;2023-04-01T02:39:28;20.10;51.40
61398;DHT22;47267;48.130;-2.040;2023-04-01T02:41:53;20.10;51.40
61398;DHT22;47267;48.130;-2.040;2023-04-01T02:44:19;20.10;51.40
61398;DHT22;47267;48.130;-2.040;2023-04-01T02:46:45;20.10;51.40
61398;DHT22;47267;48.130;-2.040;2023-04-01T02:49:11;20.10;52.00
61398;DHT22;47267;48.130;-2.040;2023-04-01T02:51:37;20.10;51.40
61398;DHT22;47267;48.130;-2.040;2023-04-01T02:54:03;20.10;51.40
61398;DHT22;47267;48.130;-2.040;2023-04-01T02:56:29;20.10;51.40
61398;DHT22;47267;48.130;-2.040;2023-04-01T02:58:58;20.10;51.40
61398;DHT22;47267;48.130;-2.040;2023-04-01T03:01:23;20.10;51.40
61398;DHT22;47267;48.130;-2.040;2023-04-01T03:03:49;20.10;51.40
61398;DHT22;47267;48.130;-2.040;2023-04-01T03:06:15;20.10;51.40
61398;DHT22;47267;48.130;-2.040;2023-04-01T03:08:41;20.10;51.40
61398;DHT22;47267;48.130;-2.040;2023-04-01T03:11:08;20.10;51.40
61398;DHT22;47267;48.130;-2.040;2023-04-01T03:13:37;20.10;51.40
61398;DHT22;47267;48.130;-2.040;2023-04-01T03:16:03;20.10;51.40
61398;DHT22;47267;48.130;-2.040;2023-04-01T03:18:28;20.10;51.40
61398;DHT22;47267;48.130;-2.040;2023-04-01T03:20:55;20.00;51.30
61398;DHT22;47267;48.130;-2.040;2023-04-01T03:23:20;20.00;51.30
61398;DHT22;47267;48.130;-2.040;2023-04-01T03:25:47;20.00;51.30
61398;DHT22;47267;48.130;-2.040;2023-04-01T03:28:13;20.00;51.30
61398;DHT22;47267;48.130;-2.040;2023-04-01T03:30:39;20.00;51.30
61398;DHT22;47267;48.130;-2.040;2023-04-01T03:33:05;20.00;51.30
61398;DHT22;47267;48.130;-2.040;2023-04-01T03:35:31;20.00;51.30
61398;DHT22;47267;48.130;-2.040;2023-04-01T03:37:57;20.00;51.30
61398;DHT22;47267;48.130;-2.040;2023-04-01T03:40:23;20.00;51.30
61398;DHT22;47267;48.130;-2.040;2023-04-01T03:42:49;20.00;51.30
61398;DHT22;47267;48.130;-2.040;2023-04-01T03:45:15;20.00;51.30
61398;DHT22;47267;48.130;-2.040;2023-04-01T03:47:41;20.00;51.30
61398;DHT22;47267;48.130;-2.040;2023-04-01T03:50:08;20.00;51.30
61398;DHT22;47267;48.130;-2.040;2023-04-01T03:52:34;20.00;51.30
61398;DHT22;47267;48.130;-2.040;2023-04-01T03:55:00;20.00;51.30
61398;DHT22;47267;48.130;-2.040;2023-04-01T03:57:26;20.00;51.30
61398;DHT22;47267;48.130;-2.040;2023-04-01T03:59:52;20.00;51.30
61398;DHT22;47267;48.130;-2.040;2023-04-01T04:02:18;20.00;51.30
61398;DHT22;47267;48.130;-2.040;2023-04-01T04:04:44;20.00;51.30
61398;DHT22;47267;48.130;-2.040;2023-04-01T04:07:12;20.00;51.30
61398;DHT22;47267;48.130;-2.040;2023-04-01T04:09:38;20.00;51.30
61398;DHT22;47267;48.130;-2.040;2023-04-01T04:12:04;20.00;51.30
61398;DHT22;47267;48.130;-2.040;2023-04-01T04:14:31;20.00;51.30
61398;DHT22;47267;48.130;-2.040;2023-04-01T04:16:57;20.00;51.30
61398;DHT22;47267;48.130;-2.040;2023-04-01T04:19:23;20.00;51.30
61398;DHT22;47267;48.130;-2.040;2023-04-01T04:21:48;20.00;51.30
61398;DHT22;47267;48.130;-2.040;2023-04-01T04:24:14;20.00;51.30
61398;DHT22;47267;48.130;-2.040;2023-04-01T04:26:40;20.00;51.30
61398;DHT22;47267;48.130;-2.040;2023-04-01T04:29:06;19.90;51.20
61398;DHT22;47267;48.130;-2.040;2023-04-01T04:31:32;20.00;51.30
61398;DHT22;47267;48.130;-2.040;2023-04-01T04:33:59;20.00;51.30
61398;DHT22;47267;48.130;-2.040;2023-04-01T04:36:26;20.00;51.30
61398;DHT22;47267;48.130;-2.040;2023-04-01T04:38:52;20.00;51.30
61398;DHT22;47267;48.130;-2.040;2023-04-01T04:41:19;20.00;51.30
61398;DHT22;47267;48.130;-2.040;2023-04-01T04:43:53;20.00;51.30
61398;DHT22;47267;48.130;-2.040;2023-04-01T04:46:19;19.90;51.20
61398;DHT22;47267;48.130;-2.040;2023-04-01T04:48:45;20.00;51.30
61398;DHT22;47267;48.130;-2.040;2023-04-01T04:51:18;19.90;51.20
61398;DHT22;47267;48.130;-2.040;2023-04-01T04:53:45;20.00;51.30
61398;DHT22;47267;48.130;-2.040;2023-04-01T04:56:11;19.90;51.20
61398;DHT22;47267;48.130;-2.040;2023-04-01T04:58:37;19.90;51.20
61398;DHT22;47267;48.130;-2.040;2023-04-01T05:01:11;19.90;51.20
61398;DHT22;47267;48.130;-2.040;2023-04-01T05:03:38;20.00;51.30
61398;DHT22;47267;48.130;-2.040;2023-04-01T05:06:04;19.90;51.20
61398;DHT22;47267;48.130;-2.040;2023-04-01T05:08:30;19.90;51.20
61398;DHT22;47267;48.130;-2.040;2023-04-01T05:10:58;19.90;51.20
61398;DHT22;47267;48.130;-2.040;2023-04-01T05:13:24;20.00;51.30
61398;DHT22;47267;48.130;-2.040;2023-04-01T05:15:50;19.90;51.20
61398;DHT22;47267;48.130;-2.040;2023-04-01T05:18:16;19.90;51.20
61398;DHT22;47267;48.130;-2.040;2023-04-01T05:20:53;20.00;51.30
61398;DHT22;47267;48.130;-2.040;2023-04-01T05:23:20;20.00;51.60
61398;DHT22;47267;48.130;-2.040;2023-04-01T05:25:50;20.00;51.30
61398;DHT22;47267;48.130;-2.040;2023-04-01T05:28:18;20.00;51.80
61398;DHT22;47267;48.130;-2.040;2023-04-01T05:30:44;19.90;51.20
61398;DHT22;47267;48.130;-2.040;2023-04-01T05:33:11;20.00;51.20
61398;DHT22;47267;48.130;-2.040;2023-04-01T05:35:37;19.90;51.20
61398;DHT22;47267;48.130;-2.040;2023-04-01T05:38:03;20.00;51.30
61398;DHT22;47267;48.130;-2.040;2023-04-01T05:40:29;19.90;51.20
61398;DHT22;47267;48.130;-2.040;2023-04-01T05:42:55;20.00;51.30
61398;DHT22;47267;48.130;-2.040;2023-04-01T05:45:21;19.90;51.20
61398;DHT22;47267;48.130;-2.040;2023-04-01T05:47:47;19.90;51.20
61398;DHT22;47267;48.130;-2.040;2023-04-01T05:50:13;20.00;51.30
61398;DHT22;47267;48.130;-2.040;2023-04-01T05:52:39;20.00;51.30
61398;DHT22;47267;48.130;-2.040;2023-04-01T05:55:05;20.00;51.20
61398;DHT22;47267;48.130;-2.040;2023-04-01T05:57:31;20.00;51.20
61398;DHT22;47267;48.130;-2.040;2023-04-01T05:59:57;19.90;51.20
61398;DHT22;47267;48.130;-2.040;2023-04-01T06:02:23;19.90;51.20
61398;DHT22;47267;48.130;-2.040;2023-04-01T06:04:49;19.90;51.20
61398;DHT22;47267;48.130;-2.040;2023-04-01T06:07:22;19.90;51.20
61398;DHT22;47267;48.130;-2.040;2023-04-01T06:09:47;19.90;51.20
61398;DHT22;47267;48.130;-2.040;2023-04-01T06:54:10;19.90;51.10
61398;DHT22;47267;48.130;-2.040;2023-04-01T06:56:38;19.90;51.10
61398;DHT22;47267;48.130;-2.040;2023-04-01T07:01:53;19.90;51.10
61398;DHT22;47267;48.130;-2.040;2023-04-01T07:04:25;19.90;51.10
61398;DHT22;47267;48.130;-2.040;2023-04-01T07:07:01;19.90;51.20
61398;DHT22;47267;48.130;-2.040;2023-04-01T07:09:35;19.90;51.10
61398;DHT22;47267;48.130;-2.040;2023-04-01T07:12:10;19.90;51.10
61398;DHT22;47267;48.130;-2.040;2023-04-01T07:14:40;19.90;51.70
61398;DHT22;47267;48.130;-2.040;2023-04-01T07:17:27;19.90;51.10
61398;DHT22;47267;48.130;-2.040;2023-04-01T07:20:03;19.90;51.10
61398;DHT22;47267;48.130;-2.040;2023-04-01T07:22:35;19.90;51.10
61398;DHT22;47267;48.130;-2.040;2023-04-01T07:25:25;19.90;51.20
61398;DHT22;47267;48.130;-2.040;2023-04-01T07:27:53;19.90;51.10
61398;DHT22;47267;48.130;-2.040;2023-04-01T07:30:23;19.90;51.10
61398;DHT22;47267;48.130;-2.040;2023-04-01T07:32:56;19.90;51.10
61398;DHT22;47267;48.130;-2.040;2023-04-01T07:35:34;19.90;51.10
61398;DHT22;47267;48.130;-2.040;2023-04-01T07:41:05;19.90;51.10
61398;DHT22;47267;48.130;-2.040;2023-04-01T07:43:57;19.90;51.10
61398;DHT22;47267;48.130;-2.040;2023-04-01T07:54:23;19.90;51.10
61398;DHT22;47267;48.130;-2.040;2023-04-01T08:05:55;19.90;51.10
61398;DHT22;47267;48.130;-2.040;2023-04-01T08:08:41;19.90;51.70
61398;DHT22;47267;48.130;-2.040;2023-04-01T08:17:23;19.90;51.20
61398;DHT22;47267;48.130;-2.040;2023-04-01T08:20:07;19.90;51.20
61398;DHT22;47267;48.130;-2.040;2023-04-01T08:22:42;19.90;51.20
61398;DHT22;47267;48.130;-2.040;2023-04-01T08:25:27;20.00;51.30
61398;DHT22;47267;48.130;-2.040;2023-04-01T08:28:03;19.90;51.20
61398;DHT22;47267;48.130;-2.040;2023-04-01T08:30:56;20.00;51.20
61398;DHT22;47267;48.130;-2.040;2023-04-01T08:33:28;20.00;51.30
61398;DHT22;47267;48.130;-2.040;2023-04-01T08:36:16;20.00;51.30
61398;DHT22;47267;48.130;-2.040;2023-04-01T08:38:57;20.00;51.30
61398;DHT22;47267;48.130;-2.040;2023-04-01T08:55:02;20.10;51.30
61398;DHT22;47267;48.130;-2.040;2023-04-01T09:00:32;20.10;51.40
61398;DHT22;47267;48.130;-2.040;2023-04-01T09:09:25;20.20;51.40
61398;DHT22;47267;48.130;-2.040;2023-04-01T09:28:28;20.30;51.50
61398;DHT22;47267;48.130;-2.040;2023-04-01T09:36:47;20.30;51.40
61398;DHT22;47267;48.130;-2.040;2023-04-01T09:39:37;20.30;51.40
61398;DHT22;47267;48.130;-2.040;2023-04-01T09:42:33;20.30;51.40
61398;DHT22;47267;48.130;-2.040;2023-04-01T09:45:26;20.30;51.40
61398;DHT22;47267;48.130;-2.040;2023-04-01T09:59:12;20.40;51.40
61398;DHT22;47267;48.130;-2.040;2023-04-01T10:15:34;20.40;51.40
61398;DHT22;47267;48.130;-2.040;2023-04-01T10:23:32;20.40;51.40
61398;DHT22;47267;48.130;-2.040;2023-04-01T10:45:07;20.40;51.30
61398;DHT22;47267;48.130;-2.040;2023-04-01T11:18:51;20.50;51.40
61398;DHT22;47267;48.130;-2.040;2023-04-01T11:51:47;20.60;51.50
61398;DHT22;47267;48.130;-2.040;2023-04-01T11:54:27;20.60;51.50
61398;DHT22;47267;48.130;-2.040;2023-04-01T12:00:14;20.60;51.50
61398;DHT22;47267;48.130;-2.040;2023-04-01T12:10:53;20.60;51.60
61398;DHT22;47267;48.130;-2.040;2023-04-01T12:16:35;20.60;51.60
61398;DHT22;47267;48.130;-2.040;2023-04-01T12:24:55;20.60;51.60
61398;DHT22;47267;48.130;-2.040;2023-04-01T12:30:42;20.70;51.70
61398;DHT22;47267;48.130;-2.040;2023-04-01T12:33:36;20.70;51.70
61398;DHT22;47267;48.130;-2.040;2023-04-01T12:42:11;20.70;51.70
61398;DHT22;47267;48.130;-2.040;2023-04-01T12:45:07;20.70;51.70
61398;DHT22;47267;48.130;-2.040;2023-04-01T13:02:26;20.70;51.70
61398;DHT22;47267;48.130;-2.040;2023-04-01T13:10:56;20.80;51.90
61398;DHT22;47267;48.130;-2.040;2023-04-01T13:13:39;20.80;51.80
61398;DHT22;47267;48.130;-2.040;2023-04-01T13:16:16;20.80;51.80
61398;DHT22;47267;48.130;-2.040;2023-04-01T13:19:13;20.80;51.80
61398;DHT22;47267;48.130;-2.040;2023-04-01T13:32:54;20.80;51.80
61398;DHT22;47267;48.130;-2.040;2023-04-01T13:41:22;20.80;51.80
61398;DHT22;47267;48.130;-2.040;2023-04-01T13:44:07;20.80;51.80
61398;DHT22;47267;48.130;-2.040;2023-04-01T13:53:03;20.80;51.90
61398;DHT22;47267;48.130;-2.040;2023-04-01T13:59:27;20.80;51.80
61398;DHT22;47267;48.130;-2.040;2023-04-01T14:01:39;20.80;51.80
61398;DHT22;47267;48.130;-2.040;2023-04-01T14:12:30;20.80;51.90
61398;DHT22;47267;48.130;-2.040;2023-04-01T14:20:29;20.90;51.90
61398;DHT22;47267;48.130;-2.040;2023-04-01T14:26:05;20.90;51.90
61398;DHT22;47267;48.130;-2.040;2023-04-01T14:28:51;20.80;51.80
61398;DHT22;47267;48.130;-2.040;2023-04-01T14:31:34;20.90;51.80
61398;DHT22;47267;48.130;-2.040;2023-04-01T14:36:41;20.80;51.80
61398;DHT22;47267;48.130;-2.040;2023-04-01T14:52:44;20.90;51.80
61398;DHT22;47267;48.130;-2.040;2023-04-01T14:55:34;20.90;51.80
61398;DHT22;47267;48.130;-2.040;2023-04-01T14:58:13;20.80;51.80
61398;DHT22;47267;48.130;-2.040;2023-04-01T15:01:10;20.80;51.70
61398;DHT22;47267;48.130;-2.040;2023-04-01T15:12:39;20.90;51.80
61398;DHT22;47267;48.130;-2.040;2023-04-01T15:32:24;20.90;51.70
61398;DHT22;47267;48.130;-2.040;2023-04-01T15:37:47;20.90;51.70
61398;DHT22;47267;48.130;-2.040;2023-04-01T15:57:06;21.00;51.70
61398;DHT22;47267;48.130;-2.040;2023-04-01T16:02:32;21.00;51.70
61398;DHT22;47267;48.130;-2.040;2023-04-01T16:05:22;20.90;51.60
61398;DHT22;47267;48.130;-2.040;2023-04-01T16:08:11;21.00;51.60
61398;DHT22;47267;48.130;-2.040;2023-04-01T16:13:23;21.00;51.60
61398;DHT22;47267;48.130;-2.040;2023-04-01T16:16:07;21.00;51.60
61398;DHT22;47267;48.130;-2.040;2023-04-01T16:21:32;21.00;51.60
61398;DHT22;47267;48.130;-2.040;2023-04-01T16:26:54;21.00;51.60
61398;DHT22;47267;48.130;-2.040;2023-04-01T16:34:36;21.00;51.50
61398;DHT22;47267;48.130;-2.040;2023-04-01T16:37:31;21.00;51.50
61398;DHT22;47267;48.130;-2.040;2023-04-01T16:40:20;21.00;51.50
61398;DHT22;47267;48.130;-2.040;2023-04-01T16:42:53;21.00;51.50
61398;DHT22;47267;48.130;-2.040;2023-04-01T16:45:42;21.00;51.50
61398;DHT22;47267;48.130;-2.040;2023-04-01T16:48:27;21.00;51.50
61398;DHT22;47267;48.130;-2.040;2023-04-01T16:51:09;21.00;51.40
61398;DHT22;47267;48.130;-2.040;2023-04-01T16:53:49;21.00;51.40
61398;DHT22;47267;48.130;-2.040;2023-04-01T16:56:23;21.00;51.40
61398;DHT22;47267;48.130;-2.040;2023-04-01T17:12:39;21.00;51.40
61398;DHT22;47267;48.130;-2.040;2023-04-01T17:18:33;21.00;51.40
61398;DHT22;47267;48.130;-2.040;2023-04-01T17:21:38;21.00;51.40
61398;DHT22;47267;48.130;-2.040;2023-04-01T17:24:38;21.00;51.30
61398;DHT22;47267;48.130;-2.040;2023-04-01T17:35:22;20.90;51.20
61398;DHT22;47267;48.130;-2.040;2023-04-01T17:44:05;20.90;51.20
61398;DHT22;47267;48.130;-2.040;2023-04-01T18:10:33;20.70;51.00
61398;DHT22;47267;48.130;-2.040;2023-04-01T18:21:23;20.70;51.00
61398;DHT22;47267;48.130;-2.040;2023-04-01T18:23:58;20.70;51.00
61398;DHT22;47267;48.130;-2.040;2023-04-01T18:26:31;20.60;51.00
61398;DHT22;47267;48.130;-2.040;2023-04-01T18:29:12;20.60;51.00
61398;DHT22;47267;48.130;-2.040;2023-04-01T18:31:43;20.60;51.00
61398;DHT22;47267;48.130;-2.040;2023-04-01T18:37:31;20.60;51.00
61398;DHT22;47267;48.130;-2.040;2023-04-01T18:42:50;20.50;51.00
61398;DHT22;47267;48.130;-2.040;2023-04-01T18:48:14;20.50;50.90
61398;DHT22;47267;48.130;-2.040;2023-04-01T18:50:56;20.50;50.90
61398;DHT22;47267;48.130;-2.040;2023-04-01T18:55:59;20.50;50.90
61398;DHT22;47267;48.130;-2.040;2023-04-01T18:58:35;20.40;50.90
61398;DHT22;47267;48.130;-2.040;2023-04-01T19:01:24;20.40;50.90
61398;DHT22;47267;48.130;-2.040;2023-04-01T19:04:03;20.40;50.90
61398;DHT22;47267;48.130;-2.040;2023-04-01T19:06:49;20.40;50.90
61398;DHT22;47267;48.130;-2.040;2023-04-01T19:17:47;20.40;50.90
61398;DHT22;47267;48.130;-2.040;2023-04-01T19:20:34;20.30;51.40
61398;DHT22;47267;48.130;-2.040;2023-04-01T19:26:13;20.30;50.80
61398;DHT22;47267;48.130;-2.040;2023-04-01T19:29:24;20.30;50.80
61398;DHT22;47267;48.130;-2.040;2023-04-01T19:40:07;20.20;50.80
61398;DHT22;47267;48.130;-2.040;2023-04-01T19:59:25;20.10;50.70
61398;DHT22;47267;48.130;-2.040;2023-04-01T20:02:17;20.10;50.70
61398;DHT22;47267;48.130;-2.040;2023-04-01T20:04:51;20.10;50.70
61398;DHT22;47267;48.130;-2.040;2023-04-01T20:10:13;20.10;50.70
61398;DHT22;47267;48.130;-2.040;2023-04-01T20:17:52;20.00;50.70
61398;DHT22;47267;48.130;-2.040;2023-04-01T20:20:20;20.00;50.70
61398;DHT22;47267;48.130;-2.040;2023-04-01T20:33:48;20.00;50.70
61398;DHT22;47267;48.130;-2.040;2023-04-01T20:36:36;20.00;50.70
61398;DHT22;47267;48.130;-2.040;2023-04-01T20:39:24;20.00;50.70
61398;DHT22;47267;48.130;-2.040;2023-04-01T20:47:36;19.90;50.70
61398;DHT22;47267;48.130;-2.040;2023-04-01T20:50:28;20.00;50.80
61398;DHT22;47267;48.130;-2.040;2023-04-01T20:52:56;20.00;50.80
61398;DHT22;47267;48.130;-2.040;2023-04-01T20:58:28;20.00;50.80
61398;DHT22;47267;48.130;-2.040;2023-04-01T21:06:55;19.90;50.80
61398;DHT22;47267;48.130;-2.040;2023-04-01T21:15:11;19.90;50.80
61398;DHT22;47267;48.130;-2.040;2023-04-01T21:23:40;20.00;50.90
61398;DHT22;47267;48.130;-2.040;2023-04-01T21:31:45;20.00;50.80
61398;DHT22;47267;48.130;-2.040;2023-04-01T21:34:42;20.00;50.90
61398;DHT22;47267;48.130;-2.040;2023-04-01T21:43:20;20.00;50.90
61398;DHT22;47267;48.130;-2.040;2023-04-01T21:51:54;20.00;50.90
61398;DHT22;47267;48.130;-2.040;2023-04-01T22:00:18;20.10;51.00
61398;DHT22;47267;48.130;-2.040;2023-04-01T22:05:37;20.10;50.90
61398;DHT22;47267;48.130;-2.040;2023-04-01T22:22:34;20.10;50.90
61398;DHT22;47267;48.130;-2.040;2023-04-01T22:25:16;20.20;51.00
61398;DHT22;47267;48.130;-2.040;2023-04-01T22:28:05;20.10;50.90
61398;DHT22;47267;48.130;-2.040;2023-04-01T22:30:37;20.20;50.90
61398;DHT22;47267;48.130;-2.040;2023-04-01T22:33:10;20.10;50.90
61398;DHT22;47267;48.130;-2.040;2023-04-01T22:35:44;20.10;50.90
61398;DHT22;47267;48.130;-2.040;2023-04-01T22:38:20;20.10;50.90
61398;DHT22;47267;48.130;-2.040;2023-04-01T22:40:54;20.20;51.00
61398;DHT22;47267;48.130;-2.040;2023-04-01T22:43:36;20.20;51.00
61398;DHT22;47267;48.130;-2.040;2023-04-01T22:51:18;20.20;50.90
61398;DHT22;47267;48.130;-2.040;2023-04-01T22:57:18;20.20;50.90
61398;DHT22;47267;48.130;-2.040;2023-04-01T22:59:53;20.20;50.90
61398;DHT22;47267;48.130;-2.040;2023-04-01T23:02:29;20.20;50.90
61398;DHT22;47267;48.130;-2.040;2023-04-01T23:04:59;20.20;50.90
61398;DHT22;47267;48.130;-2.040;2023-04-01T23:07:40;20.20;50.90
61398;DHT22;47267;48.130;-2.040;2023-04-01T23:10:26;20.20;50.90
61398;DHT22;47267;48.130;-2.040;2023-04-01T23:12:58;20.20;50.90
61398;DHT22;47267;48.130;-2.040;2023-04-01T23:15:24;20.20;50.90
61398;DHT22;47267;48.130;-2.040;2023-04-01T23:20:36;20.20;50.90
61398;DHT22;47267;48.130;-2.040;2023-04-01T23:23:32;20.20;50.90
61398;DHT22;47267;48.130;-2.040;2023-04-01T23:28:44;20.20;50.90
61398;DHT22;47267;48.130;-2.040;2023-04-01T23:31:30;20.20;50.90
61398;DHT22;47267;48.130;-2.040;2023-04-01T23:33:59;20.20;50.90
61398;DHT22;47267;48.130;-2.040;2023-04-01T23:36:26;20.20;51.10
61398;DHT22;47267;48.130;-2.040;2023-04-01T23:38:52;20.20;50.80
61398;DHT22;47267;48.130;-2.040;2023-04-01T23:41:28;20.20;50.90
61398;DHT22;47267;48.130;-2.040;2023-04-01T23:44:09;20.20;50.80
61398;DHT22;47267;48.130;-2.040;2023-04-01T23:46:37;20.20;50.80
61398;DHT22;47267;48.130;-2.040;2023-04-01T23:49:06;20.20;50.80
61398;DHT22;47267;48.130;-2.040;2023-04-01T23:51:56;20.20;50.90
61398;DHT22;47267;48.130;-2.040;2023-04-01T23:54:32;20.20;50.80
61398;DHT22;47267;48.130;-2.040;2023-04-01T23:56:58;20.20;50.90
61398;DHT22;47267;48.130;-2.040;2023-04-01T23:59:28;20.30;50.90
